createdAt,value
2018-08-11T00:00:21.289Z,100729.81
2018-08-11T00:02:50.274Z,100722.55
2018-08-11T00:05:19.251Z,100718.93
2018-08-11T00:07:48.643Z,100713.66
2018-08-11T00:10:18.209Z,100709.98
2018-08-11T00:12:47.169Z,100714.09
2018-08-11T00:15:17.529Z,100712.54
2018-08-11T00:17:46.691Z,100712.38
2018-08-11T00:20:18.768Z,100709.16
2018-08-11T00:22:47.775Z,100710.80
2018-08-11T00:25:17.178Z,100717.91
2018-08-11T00:27:46.104Z,100707.70
2018-08-11T00:30:16.462Z,100714.81
2018-08-11T00:32:45.452Z,100709.45
2018-08-11T00:35:15.192Z,100701.45
2018-08-11T00:37:44.686Z,100696.31
2018-08-11T00:40:15.777Z,100690.92
2018-08-11T00:42:45.914Z,100696.49
2018-08-11T00:45:15.529Z,100699.20
2018-08-11T00:47:44.513Z,100701.77
2018-08-11T00:50:33.556Z,100699.11
2018-08-11T00:53:02.702Z,100704.83
2018-08-11T00:55:31.617Z,100697.85
2018-08-11T00:58:00.592Z,100704.47
2018-08-11T01:00:29.639Z,100702.68
2018-08-11T01:02:58.620Z,100693.61
2018-08-11T01:05:27.672Z,100688.30
2018-08-11T01:07:56.611Z,100690.45
2018-08-11T01:10:25.569Z,100684.87
2018-08-11T01:12:54.490Z,100685.39
2018-08-11T01:15:23.652Z,100689.73
2018-08-11T01:17:53.079Z,100691.39
2018-08-11T01:20:22.068Z,100688.69
2018-08-11T01:22:51.180Z,100688.14
2018-08-11T01:25:20.124Z,100683.84
2018-08-11T01:27:49.078Z,100679.80
2018-08-11T01:30:21.024Z,100681.14
2018-08-11T01:32:49.994Z,100681.94
2018-08-11T01:35:18.982Z,100674.73
2018-08-11T01:37:47.925Z,100679.62
2018-08-11T01:40:17.526Z,100682.32
2018-08-11T01:42:47.749Z,100677.81
2018-08-11T01:45:17.337Z,100674.09
2018-08-11T01:47:46.323Z,100667.39
2018-08-11T01:50:15.940Z,100673.95
2018-08-11T01:52:46.065Z,100665.58
2018-08-11T01:55:16.410Z,100659.98
2018-08-11T01:57:47.691Z,100654.46
2018-08-11T02:00:17.960Z,100651.01
2018-08-11T02:02:47.050Z,100650.33
2018-08-11T02:05:15.996Z,100644.78
2018-08-11T02:07:45.488Z,100646.61
2018-08-11T02:10:20.919Z,100647.25
2018-08-11T02:12:49.883Z,100635.61
2018-08-11T02:15:18.844Z,100638.95
2018-08-11T02:17:47.777Z,100643.01
2018-08-11T02:20:19.044Z,100638.41
2018-08-11T02:22:48.905Z,100637.38
2018-08-11T02:25:17.909Z,100627.98
2018-08-11T02:27:46.952Z,100632.78
2018-08-11T02:30:17.049Z,100639.53
2018-08-11T02:32:46.041Z,100632.87
2018-08-11T02:35:15.350Z,100630.50
2018-08-11T02:37:44.544Z,100620.57
2018-08-11T02:40:14.836Z,100626.45
2018-08-11T02:42:43.844Z,100623.09
2018-08-11T02:45:14.679Z,100633.41
2018-08-11T02:47:43.788Z,100628.81
2018-08-11T02:50:13.223Z,100628.06
2018-08-11T02:52:42.494Z,100625.92
2018-08-11T02:55:11.821Z,100626.20
2018-08-11T02:57:40.774Z,100622.79
2018-08-11T03:00:11.573Z,100620.98
2018-08-11T03:02:43.043Z,100622.37
2018-08-11T03:05:12.015Z,100618.73
2018-08-11T03:07:41.104Z,100616.63
2018-08-11T03:10:11.515Z,100626.87
2018-08-11T03:12:41.208Z,100623.69
2018-08-11T03:15:11.653Z,100617.23
2018-08-11T03:17:41.338Z,100616.95
2018-08-11T03:20:13.113Z,100616.23
2018-08-11T03:22:42.257Z,100616.52
2018-08-11T03:25:11.420Z,100614.69
2018-08-11T03:27:40.542Z,100612.55
2018-08-11T03:30:09.599Z,100611.16
2018-08-11T03:32:38.534Z,100608.78
2018-08-11T03:35:07.442Z,100612.03
2018-08-11T03:37:36.383Z,100608.86
2018-08-11T03:40:07.253Z,100610.09
2018-08-11T03:42:36.172Z,100608.23
2018-08-11T03:45:05.116Z,100608.27
2018-08-11T03:47:34.144Z,100604.98
2018-08-11T03:50:03.619Z,100605.45
2018-08-11T03:52:32.575Z,100604.34
2018-08-11T03:55:01.549Z,100602.16
2018-08-11T03:57:30.904Z,100599.94
2018-08-11T03:59:59.850Z,100606.16
2018-08-11T04:02:28.828Z,100603.37
2018-08-11T04:04:58.016Z,100609.02
2018-08-11T04:07:27.015Z,100606.43
2018-08-11T04:09:55.994Z,100601.62
2018-08-11T04:12:24.958Z,100605.91
2018-08-11T04:14:53.966Z,100593.18
2018-08-11T04:17:29.121Z,100598.80
2018-08-11T04:19:58.409Z,100599.59
2018-08-11T04:22:27.376Z,100591.45
2018-08-11T04:24:56.354Z,100597.17
2018-08-11T04:27:25.301Z,100594.97
2018-08-11T04:29:54.261Z,100601.48
2018-08-11T04:32:23.555Z,100584.66
2018-08-11T04:34:52.513Z,100584.94
2018-08-11T04:37:21.556Z,100582.34
2018-08-11T04:39:50.641Z,100591.30
2018-08-11T04:42:19.592Z,100580.84
2018-08-11T04:44:48.527Z,100578.38
2018-08-11T04:47:17.496Z,100571.86
2018-08-11T04:49:46.465Z,100583.63
2018-08-11T04:52:15.539Z,100591.14
2018-08-11T04:54:44.498Z,100595.17
2018-08-11T04:57:13.420Z,100586.70
2018-08-11T04:59:42.464Z,100590.63
2018-08-11T05:02:11.415Z,100588.80
2018-08-11T05:04:40.336Z,100593.80
2018-08-11T05:07:09.392Z,100595.97
2018-08-11T05:09:38.330Z,100591.10
2018-08-11T05:12:07.272Z,100593.42
2018-08-11T05:14:36.271Z,100585.86
2018-08-11T05:17:05.241Z,100580.34
2018-08-11T05:19:34.188Z,100570.88
2018-08-11T05:22:03.140Z,100568.80
2018-08-11T05:24:32.144Z,100566.64
2018-08-11T05:27:01.082Z,100556.84
2018-08-11T05:29:30.339Z,100555.63
2018-08-11T05:31:59.268Z,100564.31
2018-08-11T05:34:28.197Z,100570.16
2018-08-11T05:36:57.176Z,100575.60
2018-08-11T05:39:26.094Z,100578.61
2018-08-11T05:41:55.030Z,100562.82
2018-08-11T05:44:23.989Z,100559.32
2018-08-11T05:46:53.017Z,100563.88
2018-08-11T05:49:21.946Z,100565.32
2018-08-11T05:51:50.921Z,100566.44
2018-08-11T05:54:19.894Z,100591.05
2018-08-11T05:56:48.870Z,100608.87
2018-08-11T05:59:17.870Z,100603.22
2018-08-11T06:01:46.929Z,100602.85
2018-08-11T06:04:16.028Z,100591.39
2018-08-11T06:06:45.162Z,100595.94
2018-08-11T06:09:14.155Z,100593.09
2018-08-11T06:11:43.132Z,100591.56
2018-08-11T06:14:12.148Z,100586.88
2018-08-11T06:16:41.109Z,100583.95
2018-08-11T06:19:10.126Z,100580.73
2018-08-11T06:21:39.323Z,100583.38
2018-08-11T06:24:08.535Z,100583.95
2018-08-11T06:26:37.854Z,100584.94
2018-08-11T06:29:07.345Z,100583.16
2018-08-11T06:31:41.485Z,100576.63
2018-08-11T06:34:10.679Z,100572.27
2018-08-11T06:36:39.737Z,100578.34
2018-08-11T06:39:12.550Z,100568.05
2018-08-11T06:41:45.337Z,100574.84
2018-08-11T06:44:14.400Z,100573.26
2018-08-11T06:46:43.465Z,100566.13
2018-08-11T06:49:12.347Z,100563.49
2018-08-11T06:51:41.324Z,100558.19
2018-08-11T06:54:10.438Z,100554.75
2018-08-11T06:56:39.440Z,100545.41
2018-08-11T06:59:08.420Z,100542.48
2018-08-11T07:01:37.572Z,100532.16
2018-08-11T07:04:06.788Z,100542.20
2018-08-11T07:06:36.815Z,100545.03
2018-08-11T07:09:07.790Z,100541.16
2018-08-11T07:11:36.805Z,100538.28
2018-08-11T07:14:05.815Z,100528.50
2018-08-11T07:16:34.840Z,100528.75
2018-08-11T07:19:03.781Z,100527.20
2018-08-11T07:21:33.756Z,100524.52
2018-08-11T07:24:03.343Z,100521.41
2018-08-11T07:26:33.420Z,100518.75
2018-08-11T07:29:02.473Z,100511.23
2018-08-11T07:31:31.404Z,100514.73
2018-08-11T07:34:00.350Z,100517.42
2018-08-11T07:36:29.455Z,100517.19
2018-08-11T07:38:58.498Z,100514.44
2018-08-11T07:41:27.990Z,100519.27
2018-08-11T07:43:56.946Z,100521.77
2018-08-11T07:46:25.960Z,100526.41
2018-08-11T07:48:55.159Z,100525.50
2018-08-11T07:51:24.186Z,100521.09
2018-08-11T07:53:53.190Z,100519.23
2018-08-11T07:56:22.156Z,100520.84
2018-08-11T07:58:51.111Z,100519.47
2018-08-11T08:01:20.220Z,100514.70
2018-08-11T08:03:49.108Z,100520.91
2018-08-11T08:06:18.105Z,100522.13
2018-08-11T08:08:47.039Z,100523.41
2018-08-11T08:11:17.117Z,100527.06
2018-08-11T08:13:46.215Z,100511.54
2018-08-11T08:16:15.173Z,100506.35
2018-08-11T08:18:44.113Z,100504.11
2018-08-11T08:21:13.435Z,100504.68
2018-08-11T08:23:42.392Z,100502.33
2018-08-11T08:26:11.421Z,100494.91
2018-08-11T08:28:40.366Z,100493.97
2018-08-11T08:31:09.702Z,100500.82
2018-08-11T08:33:38.664Z,100500.67
2018-08-11T08:36:07.635Z,100506.76
2018-08-11T08:38:36.645Z,100507.78
2018-08-11T08:41:05.603Z,100502.52
2018-08-11T08:43:34.561Z,100507.84
2018-08-11T08:46:03.607Z,100508.42
2018-08-11T08:48:32.562Z,100510.23
2018-08-11T08:51:01.521Z,100510.97
2018-08-11T08:53:30.512Z,100514.42
2018-08-11T08:55:59.539Z,100511.86
2018-08-11T08:58:28.491Z,100512.61
2018-08-11T09:00:57.446Z,100520.69
2018-08-11T09:03:26.511Z,100514.25
2018-08-11T09:05:55.678Z,100510.17
2018-08-11T09:08:24.609Z,100507.84
2018-08-11T09:10:54.086Z,100507.81
2018-08-11T09:13:23.060Z,100507.86
2018-08-11T09:15:52.079Z,100503.81
2018-08-11T09:18:21.053Z,100498.58
2018-08-11T09:20:55.577Z,100504.98
2018-08-11T09:23:24.644Z,100504.08
2018-08-11T09:25:53.573Z,100509.08
2018-08-11T09:28:22.551Z,100503.17
2018-08-11T09:30:51.620Z,100496.33
2018-08-11T09:33:20.886Z,100502.22
2018-08-11T09:35:49.842Z,100503.96
2018-08-11T09:38:18.971Z,100502.89
2018-08-11T09:40:47.903Z,100506.59
2018-08-11T09:43:16.875Z,100508.06
2018-08-11T09:45:45.975Z,100501.66
2018-08-11T09:48:14.852Z,100504.85
2018-08-11T09:50:43.808Z,100497.09
2018-08-11T09:53:12.863Z,100495.92
2018-08-11T09:55:41.849Z,100493.78
2018-08-11T09:58:10.915Z,100490.98
2018-08-11T10:00:47.706Z,100491.25
2018-08-11T10:03:16.732Z,100486.71
2018-08-11T10:05:45.678Z,100485.42
2018-08-11T10:08:14.628Z,100482.80
2018-08-11T10:10:43.644Z,100482.58
2018-08-11T10:13:12.627Z,100463.92
2018-08-11T10:15:41.841Z,100472.22
2018-08-11T10:18:10.962Z,100455.84
2018-08-11T10:20:39.922Z,100459.31
2018-08-11T10:23:08.868Z,100447.08
2018-08-11T10:25:38.005Z,100453.20
2018-08-11T10:28:07.024Z,100467.77
2018-08-11T10:30:36.465Z,100465.23
2018-08-11T10:33:05.568Z,100453.56
2018-08-11T10:35:34.507Z,100457.56
2018-08-11T10:38:03.551Z,100466.45
2018-08-11T10:40:32.552Z,100454.95
2018-08-11T10:43:01.515Z,100465.13
2018-08-11T10:45:30.523Z,100463.41
2018-08-11T10:47:59.569Z,100463.53
2018-08-11T10:50:28.519Z,100449.00
2018-08-11T10:52:58.082Z,100450.36
2018-08-11T10:55:27.191Z,100447.81
2018-08-11T10:57:56.179Z,100459.00
2018-08-11T11:00:25.167Z,100448.25
2018-08-11T11:02:54.332Z,100481.21
2018-08-11T11:05:23.247Z,100466.95
2018-08-11T11:07:52.218Z,100452.23
2018-08-11T11:10:21.256Z,100446.33
2018-08-11T11:12:50.161Z,100443.91
2018-08-11T11:15:19.119Z,100453.57
2018-08-11T11:17:48.107Z,100459.61
2018-08-11T11:20:17.151Z,100449.61
2018-08-11T11:22:46.144Z,100445.92
2018-08-11T11:25:15.157Z,100441.64
2018-08-11T11:27:44.482Z,100442.93
2018-08-11T11:30:13.502Z,100452.37
2018-08-11T11:32:42.489Z,100446.33
2018-08-11T11:35:11.556Z,100449.83
2018-08-11T11:37:40.537Z,100450.63
2018-08-11T11:40:09.760Z,100461.28
2018-08-11T11:42:38.724Z,100456.61
2018-08-11T11:45:07.897Z,100452.00
2018-08-11T11:47:37.669Z,100441.16
2018-08-11T11:50:06.923Z,100435.03
2018-08-11T11:52:35.840Z,100441.77
2018-08-11T11:55:04.821Z,100437.07
2018-08-11T11:57:33.844Z,100452.82
2018-08-11T12:00:02.893Z,100451.57
2018-08-11T12:02:31.776Z,100450.28
2018-08-11T12:05:00.743Z,100440.45
2018-08-11T12:07:29.688Z,100439.80
2018-08-11T12:09:58.626Z,100443.20
2018-08-11T12:12:27.622Z,100441.23
2018-08-11T12:14:56.605Z,100443.38
2018-08-11T12:17:25.536Z,100430.88
2018-08-11T12:19:54.492Z,100416.53
2018-08-11T12:22:23.448Z,100419.65
2018-08-11T12:24:52.418Z,100417.98
2018-08-11T12:27:21.422Z,100412.77
2018-08-11T12:29:50.428Z,100407.34
2018-08-11T12:32:19.427Z,100402.00
2018-08-11T12:34:48.369Z,100406.05
2018-08-11T12:37:17.307Z,100411.33
2018-08-11T12:39:46.274Z,100405.85
2018-08-11T12:42:17.027Z,100398.76
2018-08-11T12:44:46.014Z,100413.11
2018-08-11T12:47:14.947Z,100415.30
2018-08-11T12:49:43.879Z,100420.31
2018-08-11T12:52:12.843Z,100415.67
2018-08-11T12:54:41.792Z,100418.55
2018-08-11T12:57:10.803Z,100412.81
2018-08-11T12:59:39.829Z,100399.27
2018-08-11T13:02:08.874Z,100398.58
2018-08-11T13:04:37.819Z,100398.28
2018-08-11T13:07:06.780Z,100407.28
2018-08-11T13:09:35.856Z,100401.69
2018-08-11T13:12:04.819Z,100406.61
2018-08-11T13:14:33.888Z,100415.30
2018-08-11T13:17:02.965Z,100413.64
2018-08-11T13:19:32.003Z,100411.30
2018-08-11T13:22:00.932Z,100408.53
2018-08-11T13:24:29.915Z,100409.50
2018-08-11T13:26:58.889Z,100414.58
2018-08-11T13:29:28.115Z,100413.02
2018-08-11T13:31:57.010Z,100421.06
2018-08-11T13:34:26.000Z,100426.84
2018-08-11T13:36:54.925Z,100417.69
2018-08-11T13:39:23.862Z,100428.84
2018-08-11T13:41:52.817Z,100424.61
2018-08-11T13:44:21.869Z,100425.45
2018-08-11T13:46:50.778Z,100433.70
2018-08-11T13:49:19.826Z,100430.39
2018-08-11T13:51:49.864Z,100421.47
2018-08-11T13:54:18.855Z,100426.02
2018-08-11T13:56:47.821Z,100426.00
2018-08-11T13:59:16.882Z,100429.55
2018-08-11T14:01:45.934Z,100429.58
2018-08-11T14:04:14.899Z,100423.19
2018-08-11T14:06:43.772Z,100413.63
2018-08-11T14:09:12.810Z,100426.55
2018-08-11T14:11:42.245Z,100408.52
2018-08-11T14:14:11.240Z,100412.83
2018-08-11T14:16:40.200Z,100406.95
2018-08-11T14:19:09.179Z,100407.05
2018-08-11T14:21:38.322Z,100411.02
2018-08-11T14:24:07.244Z,100409.73
2018-08-11T14:26:36.204Z,100400.44
2018-08-11T14:29:05.144Z,100413.95
2018-08-11T14:31:34.104Z,100413.36
2018-08-11T14:34:05.501Z,100413.25
2018-08-11T14:36:34.444Z,100409.23
2018-08-11T14:39:03.456Z,100410.61
2018-08-11T14:41:32.475Z,100421.08
2018-08-11T14:44:01.573Z,100411.36
2018-08-11T14:46:30.521Z,100413.16
2018-08-11T14:48:59.478Z,100410.77
2018-08-11T14:51:30.018Z,100406.78
2018-08-11T14:53:59.936Z,100410.63
2018-08-11T14:56:28.979Z,100417.97
2018-08-11T14:58:57.969Z,100417.03
2018-08-11T15:01:27.042Z,100413.97
2018-08-11T15:03:55.995Z,100408.35
2018-08-11T15:06:25.053Z,100415.26
2018-08-11T15:08:54.226Z,100414.38
2018-08-11T15:11:23.243Z,100408.13
2018-08-11T15:13:52.316Z,100418.09
2018-08-11T15:16:21.350Z,100402.80
2018-08-11T15:18:52.213Z,100415.95
2018-08-11T15:21:22.647Z,100407.70
2018-08-11T15:23:51.591Z,100418.41
2018-08-11T15:26:20.555Z,100418.26
2018-08-11T15:28:49.549Z,100409.58
2018-08-11T15:31:21.600Z,100406.50
2018-08-11T15:33:50.618Z,100392.75
2018-08-11T15:36:19.567Z,100402.38
2018-08-11T15:38:48.594Z,100398.41
2018-08-11T15:41:17.512Z,100406.11
2018-08-11T15:43:46.439Z,100398.84
2018-08-11T15:46:15.402Z,100394.13
2018-08-11T15:48:44.433Z,100398.81
2018-08-11T15:51:16.067Z,100400.45
2018-08-11T15:53:45.117Z,100400.98
2018-08-11T15:56:14.770Z,100402.63
2018-08-11T15:58:44.173Z,100399.98
2018-08-11T16:01:13.145Z,100395.95
2018-08-11T16:03:42.173Z,100392.91
2018-08-11T16:06:11.159Z,100396.48
2018-08-11T16:08:40.114Z,100396.05
2018-08-11T16:11:09.057Z,100393.08
2018-08-11T16:13:38.029Z,100389.11
2018-08-11T16:16:07.043Z,100389.98
2018-08-11T16:18:36.277Z,100390.61
2018-08-11T16:21:05.287Z,100397.39
2018-08-11T16:23:34.399Z,100386.70
2018-08-11T16:26:03.424Z,100393.05
2018-08-11T16:28:32.982Z,100396.81
2018-08-11T16:31:01.975Z,100404.04
2018-08-11T16:33:30.985Z,100401.86
2018-08-11T16:35:59.964Z,100405.25
2018-08-11T16:38:28.934Z,100403.63
2018-08-11T16:40:58.019Z,100405.48
2018-08-11T16:43:26.995Z,100406.52
2018-08-11T16:45:55.955Z,100406.12
2018-08-11T16:48:25.009Z,100409.01
2018-08-11T16:50:53.963Z,100412.29
2018-08-11T16:53:22.907Z,100403.23
2018-08-11T16:55:51.860Z,100412.02
2018-08-11T16:58:20.777Z,100407.92
2018-08-11T17:00:50.156Z,100410.25
2018-08-11T17:03:19.077Z,100404.75
2018-08-11T17:05:48.061Z,100417.86
2018-08-11T17:08:16.985Z,100418.45
2018-08-11T17:10:45.915Z,100421.14
2018-08-11T17:13:14.875Z,100419.72
2018-08-11T17:15:43.875Z,100423.78
2018-08-11T17:18:12.889Z,100431.80
2018-08-11T17:20:42.167Z,100423.02
2018-08-11T17:23:11.049Z,100425.95
2018-08-11T17:25:40.254Z,100416.95
2018-08-11T17:28:09.652Z,100417.41
2018-08-11T17:30:38.697Z,100431.47
2018-08-11T17:33:07.731Z,100433.50
2018-08-11T17:35:36.740Z,100437.21
2018-08-11T17:38:06.011Z,100440.53
2018-08-11T17:40:34.960Z,100433.98
2018-08-11T17:43:03.924Z,100427.42
2018-08-11T17:45:32.946Z,100438.56
2018-08-11T17:48:02.115Z,100438.69
2018-08-11T17:50:31.648Z,100432.36
2018-08-11T17:53:02.259Z,100443.62
2018-08-11T17:55:31.401Z,100440.95
2018-08-11T17:58:00.300Z,100442.13
2018-08-11T18:00:29.404Z,100448.66
2018-08-11T18:02:58.458Z,100447.27
2018-08-11T18:05:27.444Z,100451.23
2018-08-11T18:07:56.448Z,100454.70
2018-08-11T18:10:25.396Z,100455.77
2018-08-11T18:12:54.478Z,100458.66
2018-08-11T18:15:23.404Z,100459.84
2018-08-11T18:17:52.433Z,100458.34
2018-08-11T18:20:21.457Z,100462.22
2018-08-11T18:22:50.539Z,100467.12
2018-08-11T18:25:19.596Z,100467.95
2018-08-11T18:27:48.628Z,100477.31
2018-08-11T18:30:19.251Z,100473.02
2018-08-11T18:32:48.261Z,100479.77
2018-08-11T18:35:17.250Z,100480.23
2018-08-11T18:37:46.253Z,100481.97
2018-08-11T18:40:15.219Z,100482.00
2018-08-11T18:42:44.272Z,100482.45
2018-08-11T18:45:13.286Z,100489.97
2018-08-11T18:47:42.206Z,100489.73
2018-08-11T18:50:11.476Z,100492.47
2018-08-11T18:52:40.595Z,100504.74
2018-08-11T18:55:10.508Z,100506.33
2018-08-11T18:57:39.489Z,100514.38
2018-08-11T19:00:15.234Z,100519.70
2018-08-11T19:02:44.831Z,100527.50
2018-08-11T19:05:13.903Z,100529.16
2018-08-11T19:07:43.028Z,100528.40
2018-08-11T19:10:12.175Z,100534.03
2018-08-11T19:12:41.286Z,100536.55
2018-08-11T19:15:13.097Z,100530.48
2018-08-11T19:17:42.065Z,100540.45
2018-08-11T19:20:12.289Z,100542.72
2018-08-11T19:22:41.292Z,100549.52
2018-08-11T19:25:11.293Z,100548.86
2018-08-11T19:27:40.495Z,100557.54
2018-08-11T19:30:10.388Z,100557.12
2018-08-11T19:32:39.862Z,100559.90
2018-08-11T19:35:09.015Z,100567.47
2018-08-11T19:37:38.354Z,100570.45
2018-08-11T19:40:08.457Z,100570.40
2018-08-11T19:42:37.591Z,100574.61
2018-08-11T19:45:08.549Z,100575.79
2018-08-11T19:47:53.924Z,100578.00
2018-08-11T19:50:23.018Z,100575.28
2018-08-11T19:52:52.133Z,100576.09
2018-08-11T19:55:21.488Z,100582.11
2018-08-11T19:57:51.123Z,100586.14
2018-08-11T20:00:20.913Z,100584.01
2018-08-11T20:02:49.862Z,100595.02
2018-08-11T20:05:19.463Z,100597.41
2018-08-11T20:07:48.696Z,100599.41
2018-08-11T20:10:17.658Z,100602.13
2018-08-11T20:12:46.784Z,100600.16
2018-08-11T20:15:15.772Z,100606.14
2018-08-11T20:17:44.704Z,100607.67
2018-08-11T20:20:13.735Z,100609.84
2018-08-11T20:22:42.995Z,100601.83
2018-08-11T20:25:12.134Z,100610.07
2018-08-11T20:27:41.168Z,100610.15
2018-08-11T20:30:11.125Z,100608.39
2018-08-11T20:32:40.049Z,100611.62
2018-08-11T20:35:09.013Z,100618.97
2018-08-11T20:37:38.046Z,100617.02
2018-08-11T20:40:06.981Z,100620.80
2018-08-11T20:42:36.090Z,100625.92
2018-08-11T20:45:05.655Z,100617.30
2018-08-11T20:47:34.728Z,100618.80
2018-08-11T20:50:04.118Z,100622.75
2018-08-11T20:52:33.157Z,100625.98
2018-08-11T20:55:02.124Z,100626.58
2018-08-11T20:57:31.120Z,100626.38
2018-08-11T21:00:00.182Z,100623.97
2018-08-11T21:02:29.225Z,100632.98
2018-08-11T21:04:58.177Z,100632.08
2018-08-11T21:07:27.192Z,100633.92
2018-08-11T21:09:56.143Z,100633.23
2018-08-11T21:12:25.107Z,100634.37
2018-08-11T21:14:54.406Z,100637.34
2018-08-11T21:17:23.962Z,100637.31
2018-08-11T21:19:52.912Z,100645.30
2018-08-11T21:22:22.075Z,100647.57
2018-08-11T21:24:50.983Z,100646.67
2018-08-11T21:27:19.952Z,100642.97
2018-08-11T21:29:48.911Z,100651.33
2018-08-11T21:32:17.883Z,100650.51
2018-08-11T21:34:48.013Z,100653.28
2018-08-11T21:37:17.118Z,100647.11
2018-08-11T21:39:46.032Z,100649.81
2018-08-11T21:42:15.008Z,100650.05
2018-08-11T21:44:43.992Z,100647.52
2018-08-11T21:47:12.976Z,100649.55
2018-08-11T21:49:41.951Z,100650.52
2018-08-11T21:52:10.934Z,100655.77
2018-08-11T21:54:39.955Z,100653.63
2018-08-11T21:57:10.946Z,100658.14
2018-08-11T21:59:40.283Z,100657.40
2018-08-11T22:02:09.353Z,100658.80
2018-08-11T22:04:38.360Z,100660.79
2018-08-11T22:07:08.998Z,100658.09
2018-08-11T22:09:39.358Z,100656.61
2018-08-11T22:12:08.376Z,100654.11
2018-08-11T22:14:37.384Z,100656.73
2018-08-11T22:17:06.468Z,100662.97
2018-08-11T22:19:35.392Z,100659.81
2018-08-11T22:22:04.337Z,100664.69
2018-08-11T22:24:33.333Z,100667.39
2018-08-11T22:27:02.320Z,100663.44
2018-08-11T22:29:31.279Z,100662.13
2018-08-11T22:32:00.280Z,100664.97
2018-08-11T22:34:29.303Z,100662.05
2018-08-11T22:36:58.293Z,100663.25
2018-08-11T22:39:27.248Z,100658.60
2018-08-11T22:41:56.263Z,100666.48
2018-08-11T22:44:25.300Z,100665.91
2018-08-11T22:46:54.425Z,100663.45
2018-08-11T22:49:23.360Z,100664.14
2018-08-11T22:51:52.418Z,100665.48
2018-08-11T22:54:21.372Z,100660.37
2018-08-11T22:56:50.347Z,100670.27
2018-08-11T22:59:19.345Z,100671.90
2018-08-11T23:01:48.312Z,100669.80
2018-08-11T23:04:17.269Z,100672.53
2018-08-11T23:06:46.237Z,100669.05
2018-08-11T23:09:15.392Z,100673.17
2018-08-11T23:11:44.413Z,100669.73
2018-08-11T23:14:13.412Z,100667.04
2018-08-11T23:16:42.358Z,100663.27
2018-08-11T23:19:11.513Z,100665.69
2018-08-11T23:21:40.462Z,100661.72
2018-08-11T23:24:09.927Z,100667.52
2018-08-11T23:26:38.964Z,100665.97
2018-08-11T23:29:07.948Z,100668.19
2018-08-11T23:31:36.912Z,100669.02
2018-08-11T23:34:05.903Z,100670.09
2018-08-11T23:36:34.872Z,100673.41
2018-08-11T23:39:05.868Z,100672.31
2018-08-11T23:41:34.884Z,100668.34
2018-08-11T23:44:03.887Z,100671.86
2018-08-11T23:46:32.799Z,100674.11
2018-08-11T23:49:01.865Z,100674.91
2018-08-11T23:51:30.810Z,100666.38
2018-08-11T23:53:59.784Z,100668.69
2018-08-11T23:56:28.960Z,100665.22
2018-08-11T23:58:57.938Z,100660.97
